createdAt,value
2023-05-11T00:02:37.480Z,57.99
2023-05-11T00:05:05.493Z,57.96
2023-05-11T00:07:33.191Z,57.99
2023-05-11T00:10:01.062Z,57.83
2023-05-11T00:12:28.689Z,57.85
2023-05-11T00:14:56.324Z,58.10
2023-05-11T01:01:18.738Z,58.96
2023-05-11T01:03:47.943Z,59.17
2023-05-11T01:06:17.106Z,58.90
2023-05-11T01:08:46.646Z,59.06
2023-05-11T01:11:16.529Z,59.00
2023-05-11T01:13:44.494Z,58.99
2023-05-11T01:48:25.033Z,59.16
2023-05-11T01:50:52.764Z,59.10
2023-05-11T01:53:20.780Z,59.06
2023-05-11T01:55:48.557Z,58.93
2023-05-11T01:58:16.670Z,59.04
2023-05-11T02:47:41.314Z,59.23
2023-05-11T02:50:09.495Z,59.15
2023-05-11T02:52:40.521Z,59.04
2023-05-11T02:55:09.373Z,59.14
2023-05-11T02:57:37.036Z,59.14
2023-05-11T03:47:03.755Z,59.57
2023-05-11T03:49:31.496Z,59.36
2023-05-11T03:51:59.121Z,59.35
2023-05-11T03:54:27.322Z,59.34
2023-05-11T03:56:56.398Z,59.23
2023-05-11T03:59:24.067Z,59.22
2023-05-11T04:47:15.428Z,58.98
2023-05-11T04:49:44.200Z,59.00
2023-05-11T04:52:12.057Z,58.94
2023-05-11T04:54:40.999Z,58.83
2023-05-11T04:57:08.760Z,58.81
2023-05-11T04:59:36.442Z,58.85
2023-05-11T05:02:04.223Z,58.76
2023-05-11T05:04:36.145Z,58.58
2023-05-11T05:07:04.285Z,0.00
2023-05-11T05:09:32.141Z,58.52
2023-05-11T05:11:59.724Z,58.75
2023-05-11T05:14:27.522Z,58.74
2023-05-11T05:16:55.260Z,58.75
2023-05-11T05:19:22.907Z,54.54
2023-05-11T05:21:53.165Z,52.41
2023-05-11T05:24:21.097Z,53.37
2023-05-11T05:26:48.738Z,53.27
2023-05-11T05:29:17.430Z,53.95
2023-05-11T05:31:45.110Z,53.34
2023-05-11T05:34:16.285Z,54.86
2023-05-11T05:36:44.526Z,53.46
2023-05-11T05:39:13.477Z,51.60
2023-05-11T05:41:42.453Z,52.78
2023-05-11T05:44:10.876Z,52.62
2023-05-11T05:46:39.322Z,52.86
2023-05-11T05:49:06.927Z,52.25
2023-05-11T05:51:35.261Z,52.10
2023-05-11T05:54:03.499Z,52.00
2023-05-11T05:56:34.971Z,51.73
2023-05-11T05:59:02.805Z,51.68
2023-05-11T06:01:31.276Z,51.45
2023-05-11T06:03:59.276Z,51.67
2023-05-11T06:06:27.191Z,51.49
2023-05-11T06:08:54.827Z,51.86
2023-05-11T06:11:23.067Z,51.93
2023-05-11T06:13:53.796Z,52.37
2023-05-11T06:16:21.552Z,52.51
2023-05-11T06:18:49.221Z,52.70
2023-05-11T06:21:16.864Z,52.90
2023-05-11T06:23:44.609Z,53.00
2023-05-11T06:26:12.872Z,53.08
2023-05-11T06:28:40.888Z,53.10
2023-05-11T06:31:14.981Z,53.25
2023-05-11T06:33:44.302Z,53.36
2023-05-11T06:36:20.623Z,53.43
2023-05-11T06:38:48.261Z,53.50
2023-05-11T06:41:15.925Z,53.54
2023-05-11T06:43:43.530Z,53.66
2023-05-11T06:46:24.906Z,53.76
2023-05-11T06:48:52.631Z,53.73
2023-05-11T06:51:21.721Z,53.87
2023-05-11T06:53:49.746Z,53.87
2023-05-11T06:56:17.445Z,53.92
2023-05-11T06:58:45.035Z,53.97
2023-05-11T07:01:12.690Z,54.00
2023-05-11T07:03:41.695Z,54.11
2023-05-11T07:06:09.444Z,54.15
2023-05-11T07:08:37.096Z,54.27
2023-05-11T07:11:04.815Z,54.26
2023-05-11T07:13:32.441Z,54.36
2023-05-11T07:16:00.089Z,54.37
2023-05-11T07:18:28.072Z,54.36
2023-05-11T07:20:57.134Z,54.42
2023-05-11T07:23:24.783Z,54.34
2023-05-11T07:25:53.519Z,54.57
2023-05-11T07:28:21.724Z,54.46
2023-05-11T07:30:49.365Z,54.57
2023-05-11T07:33:17.019Z,54.76
2023-05-11T07:35:44.613Z,54.85
2023-05-11T07:38:13.829Z,54.62
2023-05-11T07:40:41.463Z,54.82
2023-05-11T07:43:09.190Z,55.03
2023-05-11T07:45:37.117Z,54.91
2023-05-11T07:48:04.811Z,54.96
2023-05-11T07:50:32.481Z,55.06
2023-05-11T07:53:00.085Z,55.10
2023-05-11T07:55:30.565Z,55.14
2023-05-11T07:57:58.385Z,55.19
2023-05-11T08:00:26.049Z,55.29
2023-05-11T08:02:53.887Z,55.30
2023-05-11T08:05:21.718Z,55.22
2023-05-11T08:07:49.642Z,55.36
2023-05-11T08:10:17.263Z,55.34
2023-05-11T08:12:46.233Z,55.31
2023-05-11T08:15:13.830Z,55.33
2023-05-11T08:17:43.377Z,55.44
2023-05-11T08:20:11.529Z,55.47
2023-05-11T08:22:39.139Z,55.49
2023-05-11T08:25:07.291Z,55.35
2023-05-11T08:27:34.929Z,55.48
2023-05-11T08:30:04.003Z,55.54
2023-05-11T08:32:34.665Z,55.46
2023-05-11T08:35:06.353Z,55.53
2023-05-11T08:37:34.144Z,55.40
2023-05-11T08:40:01.805Z,55.32
2023-05-11T08:42:29.481Z,55.42
2023-05-11T08:44:58.088Z,55.44
2023-05-11T08:47:27.211Z,55.44
2023-05-11T08:49:55.192Z,55.50
2023-05-11T08:52:22.834Z,55.58
2023-05-11T08:54:50.530Z,55.56
2023-05-11T08:57:18.200Z,55.58
2023-05-11T08:59:46.166Z,55.49
2023-05-11T09:02:15.455Z,55.57
2023-05-11T09:04:46.881Z,55.53
2023-05-11T09:07:16.372Z,55.62
2023-05-11T09:09:44.068Z,55.71
2023-05-11T09:12:11.967Z,55.74
2023-05-11T09:14:39.697Z,55.65
2023-05-11T09:17:07.482Z,55.77
2023-05-11T09:19:35.188Z,55.92
2023-05-11T09:22:04.929Z,55.92
2023-05-11T09:24:32.686Z,55.82
2023-05-11T09:27:09.832Z,55.89
2023-05-11T09:29:37.532Z,56.08
2023-05-11T09:32:05.474Z,56.01
2023-05-11T09:34:33.077Z,56.00
2023-05-11T09:37:00.773Z,56.19
2023-05-11T09:39:42.161Z,56.05
2023-05-11T09:42:15.614Z,56.26
2023-05-11T09:44:43.315Z,56.17
2023-05-11T09:47:11.449Z,56.32
2023-05-11T09:49:39.134Z,56.26
2023-05-11T09:52:07.015Z,56.20
2023-05-11T09:54:38.849Z,56.36
2023-05-11T09:57:08.406Z,56.02
2023-05-11T09:59:39.439Z,55.39
2023-05-11T10:02:17.605Z,55.75
2023-05-11T10:04:45.343Z,55.88
2023-05-11T10:07:13.098Z,55.99
2023-05-11T10:09:42.109Z,55.73
2023-05-11T10:12:10.001Z,55.79
2023-05-11T10:14:37.730Z,55.72
2023-05-11T10:17:05.680Z,55.71
2023-05-11T10:19:34.055Z,55.85
2023-05-11T10:22:01.866Z,55.65
2023-05-11T10:24:29.535Z,55.79
2023-05-11T10:26:59.001Z,55.90
2023-05-11T10:29:26.726Z,55.94
2023-05-11T10:31:54.470Z,55.80
2023-05-11T10:34:23.307Z,55.82
2023-05-11T10:36:51.000Z,55.80
2023-05-11T10:39:18.609Z,55.68
2023-05-11T10:41:48.280Z,55.69
2023-05-11T10:44:36.714Z,55.17
2023-05-11T10:47:13.307Z,55.32
2023-05-11T10:49:53.205Z,55.00
2023-05-11T10:52:23.422Z,55.12
2023-05-11T10:54:55.368Z,54.99
2023-05-11T10:57:25.990Z,55.04
2023-05-11T11:00:10.351Z,54.92
2023-05-11T11:02:39.663Z,54.92
2023-05-11T11:05:10.616Z,54.83
2023-05-11T11:07:56.827Z,55.05
2023-05-11T11:10:30.733Z,54.79
2023-05-11T11:13:05.307Z,54.87
2023-05-11T11:15:51.621Z,54.96
2023-05-11T11:18:23.622Z,54.81
2023-05-11T11:20:53.431Z,54.83
2023-05-11T11:23:39.060Z,54.68
2023-05-11T11:26:06.749Z,54.75
2023-05-11T11:28:49.293Z,55.04
2023-05-11T11:31:26.501Z,54.75
2023-05-11T11:33:56.190Z,54.94
2023-05-11T11:36:38.752Z,55.03
2023-05-11T11:39:08.025Z,55.39
2023-05-11T11:41:37.987Z,54.82
2023-05-11T11:44:05.787Z,55.08
2023-05-11T11:46:33.456Z,55.03
2023-05-11T11:49:07.559Z,55.07
2023-05-11T11:51:35.312Z,55.15
2023-05-11T11:54:02.938Z,54.90
2023-05-11T11:56:41.509Z,55.14
2023-05-11T11:59:13.943Z,55.06
2023-05-11T12:01:42.760Z,55.32
2023-05-11T12:04:14.175Z,55.27
2023-05-11T12:06:44.468Z,54.81
2023-05-11T12:09:12.028Z,55.47
2023-05-11T12:11:41.124Z,55.20
2023-05-11T12:14:09.958Z,55.08
2023-05-11T12:16:37.592Z,54.98
2023-05-11T12:19:05.643Z,54.87
2023-05-11T12:21:33.383Z,54.97
2023-05-11T12:24:01.353Z,54.96
2023-05-11T12:26:29.270Z,54.86
2023-05-11T12:29:08.751Z,54.88
2023-05-11T12:31:36.657Z,54.82
2023-05-11T12:34:04.583Z,54.86
2023-05-11T12:36:33.057Z,54.81
2023-05-11T12:39:00.652Z,54.68
2023-05-11T12:41:28.497Z,54.90
2023-05-11T12:43:56.395Z,55.08
2023-05-11T12:46:25.524Z,54.83
2023-05-11T12:48:53.294Z,54.71
2023-05-11T12:51:39.642Z,54.87
2023-05-11T12:54:07.290Z,54.74
2023-05-11T12:56:45.700Z,54.89
2023-05-11T12:59:24.848Z,55.24
2023-05-11T13:01:54.006Z,55.31
2023-05-11T13:04:29.448Z,55.08
2023-05-11T13:06:57.099Z,55.12
2023-05-11T13:09:25.225Z,55.33
2023-05-11T13:12:07.692Z,55.23
2023-05-11T13:14:35.438Z,55.43
2023-05-11T13:17:04.416Z,55.40
2023-05-11T13:19:32.325Z,55.43
2023-05-11T13:21:59.935Z,55.44
2023-05-11T15:33:10.300Z,0.00
2023-05-11T15:43:03.273Z,0.00
2023-05-11T15:57:53.315Z,0.00
